createdAt,value
2022-09-28T00:01:44.598Z,97794.31
2022-09-28T00:04:47.401Z,97797.81
2022-09-28T00:07:50.078Z,97800.06
2022-09-28T00:10:57.400Z,97789.34
2022-09-28T00:14:02.480Z,97778.53
2022-09-28T00:17:05.182Z,97777.47
2022-09-28T00:20:08.141Z,97781.38
2022-09-28T00:23:10.784Z,97775.81
2022-09-28T00:26:14.856Z,97772.66
2022-09-28T00:29:19.478Z,97767.13
2022-09-28T00:32:24.658Z,97776.19
2022-09-28T00:35:27.363Z,97774.84
2022-09-28T00:38:30.490Z,97769.91
2022-09-28T00:41:35.017Z,97772.59
2022-09-28T00:44:43.261Z,97773.19
2022-09-28T00:47:49.837Z,97768.19
2022-09-28T00:50:52.796Z,97782.06
2022-09-28T00:53:56.175Z,97777.09
2022-09-28T00:57:01.215Z,97780.19
2022-09-28T01:00:04.578Z,97779.78
2022-09-28T01:03:07.711Z,97779.41
2022-09-28T01:06:10.509Z,97776.19
2022-09-28T01:09:13.644Z,97784.75
2022-09-28T01:12:17.884Z,97773.81
2022-09-28T01:15:21.948Z,97769.69
2022-09-28T01:18:30.146Z,97766.56
2022-09-28T01:21:38.507Z,97765.19
2022-09-28T01:24:43.261Z,97764.47
2022-09-28T01:27:50.052Z,97764.66
2022-09-28T01:30:57.232Z,97763.41
2022-09-28T01:34:02.111Z,97761.41
2022-09-28T01:37:07.234Z,97767.34
2022-09-28T01:40:11.431Z,97767.66
2022-09-28T01:43:21.077Z,97769.19
2022-09-28T01:46:26.898Z,97764.28
2022-09-28T01:49:34.344Z,97764.50
2022-09-28T01:52:41.012Z,97759.75
2022-09-28T01:55:45.940Z,97766.56
2022-09-28T01:58:51.807Z,97762.09
2022-09-28T02:01:56.632Z,97773.97
2022-09-28T02:05:00.937Z,97759.91
2022-09-28T02:08:06.797Z,97769.03
2022-09-28T02:11:12.362Z,97768.41
2022-09-28T02:14:19.769Z,97781.00
2022-09-28T02:17:25.394Z,97782.16
2022-09-28T02:20:30.412Z,97793.19
2022-09-28T02:23:36.333Z,97788.56
2022-09-28T02:26:42.012Z,97790.22
2022-09-28T02:29:46.075Z,97788.41
2022-09-28T02:32:51.831Z,97785.25
2022-09-28T02:35:56.659Z,97794.13
2022-09-28T02:39:01.269Z,97783.06
2022-09-28T02:42:17.256Z,97779.69
2022-09-28T02:45:28.705Z,97785.50
2022-09-28T02:48:43.894Z,97782.56
2022-09-28T02:51:51.273Z,97783.47
2022-09-28T02:55:02.784Z,97780.88
2022-09-28T02:58:14.129Z,97777.31
2022-09-28T03:01:21.499Z,97776.13
2022-09-28T03:04:30.046Z,97776.31
2022-09-28T03:07:35.326Z,97775.38
2022-09-28T03:10:39.998Z,97782.34
2022-09-28T03:13:43.352Z,97777.75
2022-09-28T03:16:47.700Z,97788.88
2022-09-28T03:19:50.348Z,97785.56
2022-09-28T03:23:19.680Z,97787.41
2022-09-28T03:26:16.928Z,97788.22
2022-09-28T03:29:20.507Z,97786.06
2022-09-28T03:32:24.536Z,97803.72
2022-09-28T03:35:27.274Z,97807.88
2022-09-28T03:38:30.010Z,97813.97
2022-09-28T03:41:32.749Z,97809.84
2022-09-28T03:44:35.535Z,97801.44
2022-09-28T03:47:39.612Z,97803.53
2022-09-28T03:50:42.305Z,97810.91
2022-09-28T03:53:45.015Z,97817.25
2022-09-28T03:56:47.780Z,97818.78
2022-09-28T03:59:50.443Z,97814.03
2022-09-28T04:02:54.760Z,97813.81
2022-09-28T04:05:57.493Z,97825.13
2022-09-28T04:09:00.228Z,97817.94
2022-09-28T04:12:04.516Z,97823.91
2022-09-28T04:15:07.856Z,97821.66
2022-09-28T04:18:12.367Z,97825.00
2022-09-28T04:21:16.837Z,97823.56
2022-09-28T04:24:20.332Z,97815.97
2022-09-28T04:27:40.557Z,97810.66
2022-09-28T04:30:43.219Z,97813.56
2022-09-28T04:33:47.415Z,97819.28
2022-09-28T04:36:50.494Z,97813.81
2022-09-28T04:39:53.114Z,97822.13
2022-09-28T04:42:56.184Z,97824.00
2022-09-28T04:45:59.782Z,97835.06
2022-09-28T04:49:04.515Z,97832.91
2022-09-28T04:52:07.421Z,97829.34
2022-09-28T04:55:12.580Z,97836.00
2022-09-28T04:58:15.301Z,97837.09
2022-09-28T05:01:19.930Z,97834.50
2022-09-28T05:04:26.121Z,97836.59
2022-09-28T05:07:28.978Z,97828.84
2022-09-28T05:10:31.840Z,97840.75
2022-09-28T05:13:35.756Z,97839.00
2022-09-28T05:16:38.534Z,97838.53
2022-09-28T05:19:43.087Z,97835.31
2022-09-28T05:22:46.435Z,97829.84
2022-09-28T05:25:49.050Z,97829.00
2022-09-28T05:28:51.985Z,97828.78
2022-09-28T05:31:54.741Z,97836.59
2022-09-28T05:35:01.878Z,97831.72
2022-09-28T05:38:05.296Z,97852.66
2022-09-28T05:41:08.062Z,97851.41
2022-09-28T05:44:11.696Z,97852.22
2022-09-28T05:47:14.418Z,97841.41
2022-09-28T05:50:18.676Z,97841.91
2022-09-28T05:53:21.349Z,97833.50
2022-09-28T05:56:24.066Z,97842.56
2022-09-28T05:59:26.695Z,97850.78
2022-09-28T06:02:29.441Z,97883.88
2022-09-28T06:05:36.178Z,97899.47
2022-09-28T06:08:42.922Z,97903.63
2022-09-28T06:11:45.635Z,97895.47
2022-09-28T06:14:49.236Z,97899.53
2022-09-28T06:17:56.641Z,97908.00
2022-09-28T06:21:01.098Z,97909.91
2022-09-28T06:24:04.261Z,97908.78
2022-09-28T06:27:06.939Z,97917.88
2022-09-28T06:30:10.005Z,97909.06
2022-09-28T06:33:13.855Z,97910.38
2022-09-28T06:36:18.301Z,97913.50
2022-09-28T06:39:21.265Z,97915.16
2022-09-28T06:42:23.971Z,97908.72
2022-09-28T06:45:27.076Z,97910.38
2022-09-28T06:48:29.751Z,97907.66
2022-09-28T06:51:33.753Z,97911.56
2022-09-28T06:54:36.449Z,97916.75
2022-09-28T06:57:39.079Z,97912.16
2022-09-28T07:00:42.141Z,97915.88
2022-09-28T07:03:45.803Z,97915.50
2022-09-28T07:06:50.907Z,97917.59
2022-09-28T07:09:55.526Z,97912.59
2022-09-28T07:13:02.655Z,97906.50
2022-09-28T07:16:05.442Z,97902.16
2022-09-28T07:19:08.158Z,97898.06
2022-09-28T07:22:18.920Z,97898.41
2022-09-28T07:25:22.908Z,97910.53
2022-09-28T07:28:25.899Z,97902.19
2022-09-28T07:31:29.694Z,97909.50
2022-09-28T07:34:36.990Z,97907.72
2022-09-28T07:37:41.075Z,97910.78
2022-09-28T07:41:01.336Z,97913.88
2022-09-28T07:44:06.567Z,97905.63
2022-09-28T07:47:09.544Z,97919.03
2022-09-28T07:50:12.352Z,97924.00
2022-09-28T07:53:17.685Z,97926.53
2022-09-28T07:56:20.470Z,97928.47
2022-09-28T07:59:23.189Z,97926.13
2022-09-28T08:02:25.970Z,97929.22
2022-09-28T08:05:32.048Z,97926.97
2022-09-28T08:08:36.223Z,97934.00
2022-09-28T08:11:40.971Z,97925.53
2022-09-28T08:14:43.679Z,97913.34
2022-09-28T08:17:48.108Z,97924.56
2022-09-28T08:21:10.599Z,97931.13
2022-09-28T08:24:15.665Z,97921.69
2022-09-28T08:27:19.462Z,97928.00
2022-09-28T08:30:22.228Z,97927.25
2022-09-28T08:33:24.991Z,97936.13
2022-09-28T08:36:28.310Z,97940.63
2022-09-28T08:39:32.873Z,97942.75
2022-09-28T08:42:39.422Z,97939.59
2022-09-28T08:45:42.152Z,97942.59
2022-09-28T08:49:13.400Z,97946.75
2022-09-28T08:52:20.693Z,97951.72
2022-09-28T08:55:29.760Z,97951.69
2022-09-28T08:58:34.582Z,97954.53
2022-09-28T09:01:40.397Z,97950.91
2022-09-28T09:04:43.545Z,97952.09
2022-09-28T09:07:57.857Z,97953.16
2022-09-28T09:11:04.277Z,97956.88
2022-09-28T09:14:20.962Z,97962.22
2022-09-28T09:17:32.255Z,97960.38
2022-09-28T09:20:37.665Z,97947.63
2022-09-28T09:23:48.548Z,97949.72
2022-09-28T09:26:57.956Z,97953.22
2022-09-28T09:30:06.600Z,97953.81
2022-09-28T09:33:33.033Z,97941.88
2022-09-28T09:36:41.331Z,97945.06
2022-09-28T09:39:52.174Z,97949.31
2022-09-28T09:43:06.282Z,97939.00
2022-09-28T09:46:12.875Z,97951.25
2022-09-28T09:49:17.345Z,97956.91
2022-09-28T09:52:22.322Z,97961.28
2022-09-28T09:55:29.901Z,97964.94
2022-09-28T09:58:39.498Z,97958.19
2022-09-28T10:01:42.800Z,97956.19
2022-09-28T10:04:46.927Z,97952.25
2022-09-28T10:07:53.896Z,97955.19
2022-09-28T10:11:03.555Z,97965.75
2022-09-28T10:14:08.270Z,97965.31
2022-09-28T10:17:13.281Z,97946.38
2022-09-28T10:20:17.053Z,97962.22
2022-09-28T10:23:23.654Z,97960.78
2022-09-28T10:26:29.517Z,97969.19
2022-09-28T10:29:39.711Z,97971.97
2022-09-28T10:32:44.351Z,97977.59
2022-09-28T10:35:47.903Z,97981.41
2022-09-28T10:38:50.610Z,97977.34
2022-09-28T10:41:53.436Z,97980.66
2022-09-28T10:45:04.612Z,97980.19
2022-09-28T10:48:15.200Z,97991.44
2022-09-28T10:51:18.416Z,97977.16
2022-09-28T10:54:22.430Z,97980.53
2022-09-28T10:57:28.030Z,97975.97
2022-09-28T11:00:33.565Z,97988.13
2022-09-28T11:03:43.396Z,97973.72
2022-09-28T11:06:46.933Z,97974.47
2022-09-28T11:09:50.341Z,97980.31
2022-09-28T11:12:54.180Z,97981.34
2022-09-28T11:15:58.661Z,97968.84
2022-09-28T11:19:04.997Z,97976.28
2022-09-28T11:22:21.326Z,97965.72
2022-09-28T11:25:24.780Z,97964.19
2022-09-28T11:28:30.509Z,97971.59
2022-09-28T11:31:36.170Z,97974.31
2022-09-28T11:34:58.768Z,97976.72
2022-09-28T11:38:13.730Z,97975.38
2022-09-28T11:41:27.486Z,97961.81
2022-09-28T11:44:39.873Z,97962.31
2022-09-28T11:47:50.248Z,97974.31
2022-09-28T11:50:55.646Z,97988.69
2022-09-28T11:54:00.767Z,97980.47
2022-09-28T11:57:05.152Z,97984.59
2022-09-28T12:00:10.061Z,97982.28
2022-09-28T12:03:18.126Z,97977.38
2022-09-28T12:06:24.877Z,97984.19
2022-09-28T12:09:31.469Z,97976.41
2022-09-28T12:12:36.490Z,97976.84
2022-09-28T12:16:12.753Z,97970.88
2022-09-28T12:19:12.879Z,97977.66
2022-09-28T12:22:19.613Z,97976.88
2022-09-28T12:25:24.217Z,97979.34
2022-09-28T12:28:31.199Z,97983.03
2022-09-28T12:31:36.159Z,97992.13
2022-09-28T12:34:41.833Z,97994.38
2022-09-28T12:37:56.615Z,97996.03
2022-09-28T12:41:06.693Z,97999.34
2022-09-28T12:44:18.348Z,98000.53
2022-09-28T12:47:33.103Z,98008.78
2022-09-28T12:50:45.561Z,98002.78
2022-09-28T12:53:59.642Z,98003.19
2022-09-28T12:57:09.710Z,98007.53
2022-09-28T13:00:14.494Z,98001.34
2022-09-28T13:03:31.744Z,97998.47
2022-09-28T13:06:51.693Z,98008.81
2022-09-28T13:10:01.359Z,98008.97
2022-09-28T13:13:09.872Z,98014.97
2022-09-28T13:16:17.723Z,98013.31
2022-09-28T13:19:22.972Z,98019.47
2022-09-28T13:22:32.424Z,98026.44
2022-09-28T13:25:36.368Z,98036.50
2022-09-28T13:28:40.170Z,98034.75
2022-09-28T13:31:45.678Z,98033.34
2022-09-28T13:34:50.545Z,98040.78
2022-09-28T13:38:08.117Z,98037.94
2022-09-28T13:41:14.893Z,98040.63
2022-09-28T13:44:26.482Z,98054.22
2022-09-28T13:47:44.060Z,98057.88
2022-09-28T13:51:03.163Z,98053.22
2022-09-28T13:54:21.798Z,98047.31
2022-09-28T13:57:31.030Z,98056.41
2022-09-28T14:00:38.142Z,98060.75
2022-09-28T14:03:45.224Z,98056.03
2022-09-28T14:06:54.836Z,98060.88
2022-09-28T14:10:23.859Z,98052.53
2022-09-28T14:13:44.967Z,98052.94
2022-09-28T14:16:49.051Z,98072.28
2022-09-28T14:19:53.464Z,98073.88
2022-09-28T14:23:10.991Z,98086.44
2022-09-28T14:26:31.588Z,98085.03
2022-09-28T14:29:36.513Z,98097.44
2022-09-28T14:32:43.248Z,98092.44
2022-09-28T14:35:48.818Z,98091.44
2022-09-28T14:39:09.246Z,98096.59
2022-09-28T14:42:15.726Z,98094.13
2022-09-28T14:45:35.946Z,98100.72
2022-09-28T14:48:45.954Z,98103.41
2022-09-28T14:52:06.796Z,98099.91
2022-09-28T14:55:20.979Z,98095.03
2022-09-28T14:58:25.152Z,98088.66
2022-09-28T15:01:27.866Z,98096.44
2022-09-28T15:04:32.025Z,98093.78
2022-09-28T15:07:47.472Z,98093.31
2022-09-28T15:10:51.540Z,98099.13
2022-09-28T15:14:06.381Z,98097.06
2022-09-28T15:17:10.837Z,98108.09
2022-09-28T15:20:22.159Z,98105.59
2022-09-28T15:23:26.732Z,98109.00
2022-09-28T15:26:31.133Z,98108.84
2022-09-28T15:29:34.101Z,98104.22
2022-09-28T15:32:37.207Z,98105.16
2022-09-28T15:35:40.697Z,98116.97
2022-09-28T15:38:43.797Z,98124.47
2022-09-28T15:41:47.329Z,98118.72
2022-09-28T15:45:04.237Z,98126.19
2022-09-28T15:48:20.633Z,98130.06
2022-09-28T15:51:25.592Z,98135.94
2022-09-28T15:54:32.144Z,98144.56
2022-09-28T15:57:38.091Z,98144.13
2022-09-28T16:00:41.545Z,98144.94
2022-09-28T16:03:44.344Z,98153.75
2022-09-28T16:07:05.216Z,98154.06
2022-09-28T16:10:27.319Z,98161.78
2022-09-28T16:13:31.551Z,98156.59
2022-09-28T16:16:36.436Z,98162.00
2022-09-28T16:19:39.387Z,98163.78
2022-09-28T16:22:44.148Z,98161.56
2022-09-28T16:25:51.809Z,98153.50
2022-09-28T16:28:57.284Z,98158.22
2022-09-28T16:32:22.847Z,98166.56
2022-09-28T16:35:30.555Z,98160.13
2022-09-28T16:38:39.239Z,98166.13
2022-09-28T16:41:45.080Z,98164.00
2022-09-28T16:44:50.485Z,98171.31
2022-09-28T16:47:58.580Z,98170.84
2022-09-28T16:51:06.375Z,98164.63
2022-09-28T16:54:32.654Z,98171.56
2022-09-28T16:57:40.698Z,98166.47
2022-09-28T17:00:45.912Z,98173.22
2022-09-28T17:03:54.261Z,98179.09
2022-09-28T17:07:00.045Z,98182.28
2022-09-28T17:10:05.204Z,98188.34
2022-09-28T17:13:15.118Z,98183.81
2022-09-28T17:16:28.259Z,98184.25
2022-09-28T17:19:42.359Z,98190.81
2022-09-28T17:22:46.134Z,98200.50
2022-09-28T17:26:04.428Z,98203.72
2022-09-28T17:29:12.660Z,98213.34
2022-09-28T17:32:19.356Z,98222.91
2022-09-28T17:35:25.539Z,98231.88
2022-09-28T17:38:29.364Z,98220.63
2022-09-28T17:41:35.966Z,98222.66
2022-09-28T17:44:41.497Z,98227.53
2022-09-28T17:47:44.982Z,98227.72
2022-09-28T17:50:50.723Z,98238.16
2022-09-28T17:53:56.776Z,98230.13
2022-09-28T17:57:01.034Z,98236.97
2022-09-28T18:00:08.173Z,98232.63
2022-09-28T18:03:17.468Z,98229.41
2022-09-28T18:06:23.643Z,98230.59
2022-09-28T18:09:28.164Z,98230.25
2022-09-28T18:12:32.816Z,98219.72
2022-09-28T18:15:36.795Z,98217.13
2022-09-28T18:18:42.009Z,98221.28
2022-09-28T18:21:45.282Z,98210.59
2022-09-28T18:24:48.342Z,98206.69
2022-09-28T18:27:57.301Z,98221.63
2022-09-28T18:31:00.124Z,98206.81
2022-09-28T18:34:03.225Z,98209.75
2022-09-28T18:37:06.818Z,98215.84
2022-09-28T18:40:15.396Z,98219.16
2022-09-28T18:43:20.911Z,98216.69
2022-09-28T18:46:32.721Z,98208.47
2022-09-28T18:49:37.025Z,98215.38
2022-09-28T18:52:47.694Z,98218.06
2022-09-28T18:56:01.349Z,98217.22
2022-09-28T18:59:09.976Z,98222.38
2022-09-28T19:02:16.744Z,98217.22
2022-09-28T19:05:20.763Z,98223.97
2022-09-28T19:08:27.508Z,98222.31
2022-09-28T19:11:30.850Z,98235.03
2022-09-28T19:14:35.295Z,98236.34
2022-09-28T19:17:37.968Z,98233.91
2022-09-28T19:20:40.956Z,98235.22
2022-09-28T19:23:49.081Z,98236.78
2022-09-28T19:26:53.633Z,98236.41
2022-09-28T19:29:58.801Z,98239.06
2022-09-28T19:33:04.355Z,98245.25
2022-09-28T19:36:08.165Z,98243.97
2022-09-28T19:39:14.437Z,98248.41
2022-09-28T19:42:17.150Z,98260.63
2022-09-28T19:45:21.254Z,98257.34
2022-09-28T19:48:26.668Z,98275.56
2022-09-28T19:51:29.934Z,98268.94
2022-09-28T19:54:36.584Z,98272.06
2022-09-28T19:57:39.449Z,98277.22
2022-09-28T20:00:44.298Z,98280.44
2022-09-28T20:03:47.181Z,98280.25
2022-09-28T20:06:52.474Z,98284.28
2022-09-28T20:09:55.176Z,98281.22
2022-09-28T20:12:59.020Z,98282.03
2022-09-28T20:16:07.197Z,98296.28
2022-09-28T20:19:10.168Z,98300.06
2022-09-28T20:22:12.810Z,98291.56
2022-09-28T20:25:16.802Z,98292.38
2022-09-28T20:28:19.552Z,98290.88
2022-09-28T20:31:26.271Z,98298.38
2022-09-28T20:34:29.005Z,98300.41
2022-09-28T20:37:33.006Z,98306.94
2022-09-28T20:40:36.605Z,98307.72
2022-09-28T20:43:39.727Z,98309.81
2022-09-28T20:46:44.378Z,98315.97
2022-09-28T20:49:47.647Z,98313.06
2022-09-28T20:52:50.342Z,98319.22
2022-09-28T20:55:58.102Z,98320.34
2022-09-28T20:59:00.819Z,98312.34
2022-09-28T21:02:04.948Z,98305.44
2022-09-28T21:05:08.146Z,98318.47
2022-09-28T21:08:10.857Z,98327.91
2022-09-28T21:11:13.980Z,98327.13
2022-09-28T21:14:16.784Z,98325.44
2022-09-28T21:17:20.833Z,98322.78
2022-09-28T21:20:23.495Z,98329.31
2022-09-28T21:23:26.245Z,98323.94
2022-09-28T21:26:29.806Z,98324.53
2022-09-28T21:29:32.445Z,98313.44
2022-09-28T21:32:36.539Z,98306.13
2022-09-28T21:35:39.649Z,98300.13
2022-09-28T21:38:42.405Z,98311.78
2022-09-28T21:41:45.438Z,98332.34
2022-09-28T21:44:48.125Z,98333.03
2022-09-28T21:47:53.849Z,98333.75
2022-09-28T21:51:00.029Z,98335.56
2022-09-28T21:54:02.788Z,98331.91
2022-09-28T21:57:05.527Z,98337.09
2022-09-28T22:00:09.091Z,98333.56
2022-09-28T22:03:13.193Z,98341.56
2022-09-28T22:06:16.265Z,98350.63
2022-09-28T22:09:18.951Z,98350.75
2022-09-28T22:12:21.634Z,98352.28
2022-09-28T22:15:24.343Z,98355.13
2022-09-28T22:18:30.585Z,98354.72
2022-09-28T22:21:35.007Z,98354.38
2022-09-28T22:24:37.746Z,98361.69
2022-09-28T22:27:40.642Z,98372.91
2022-09-28T22:30:43.497Z,98376.38
2022-09-28T22:33:47.950Z,98391.56
2022-09-28T22:36:50.690Z,98378.53
2022-09-28T22:39:53.665Z,98388.38
2022-09-28T22:42:56.404Z,98380.97
2022-09-28T22:46:03.386Z,98379.88
2022-09-28T22:49:07.519Z,98391.16
2022-09-28T22:52:10.252Z,98383.88
2022-09-28T22:55:13.928Z,98388.25
2022-09-28T22:58:16.648Z,98397.22
2022-09-28T23:01:21.020Z,98396.22
2022-09-28T23:04:25.142Z,98402.69
2022-09-28T23:07:27.889Z,98394.88
2022-09-28T23:10:30.985Z,98395.63
2022-09-28T23:13:33.755Z,98390.88
2022-09-28T23:16:38.231Z,98390.69
2022-09-28T23:19:42.354Z,98397.06
2022-09-28T23:22:46.752Z,98400.06
2022-09-28T23:25:49.457Z,98399.94
2022-09-28T23:28:52.740Z,98396.06
2022-09-28T23:31:55.384Z,98405.59
2022-09-28T23:34:59.403Z,98409.41
2022-09-28T23:38:02.109Z,98405.06
2022-09-28T23:41:04.918Z,98417.56
2022-09-28T23:44:07.886Z,98412.75
2022-09-28T23:47:10.619Z,98424.22
2022-09-28T23:50:14.739Z,98427.69
2022-09-28T23:53:17.460Z,98430.53
2022-09-28T23:56:20.169Z,98426.88
2022-09-28T23:59:22.797Z,98432.03
